Weather at Simandl Field/Private Airport

Public forecast

Using degrees Fahrenheit for public forecast. Weather courtesy of forecast.io.

Closest aviation weather report (METAR) to Simandl Field/Private Airport

Closest report is Waukesha County Airport, 10.6 nm (19.7 km) NNW. Retrieved 2021/06/20 09:15 UTC (0 seconds ago):

KUES 200915Z AUTO 00000KT 10SM CLR 12/11 A2976 RMK AO2

Closest aviation forecast (TAF) to Simandl Field/Private Airport

Closest forecast is Waukesha County Airport, 10.6 nm (19.7 km) NNW. Retrieved 2021/06/20 06:22 UTC (3 hours ago):

TAF KUES 200520Z 2006/2106 VRB03KT P6SM SCT200 FM201500 17005KT P6SM BKN200 FM201800 15008KT 6SM -SHRA BR VCTS BKN100CB TEMPO 2018/2022 4SM -TSRA BKN050CB FM202200 12008KT P6SM SCT025 BKN040 FM210100 14007KT P6SM VCTS BKN030CB